This is the latest recevied weather packets stored in our database for station/object KD9IXX-13. If no packets are shown the sender has not sent any weather packets the latest 10 day(s).
| Time | Temp. | Humidity | Pressure | Rain* | Wind** | Luminosity | Snow |
|---|---|---|---|---|---|---|---|
| 1787670902 | 23.89° C | 59% | 1022.6 hPa | 0 mm | - | 664 W/m² | - |
| 1787670602 | 23.89° C | 55% | 1022.3 hPa | 0 mm | - | 681 W/m² | - |
| 1787670001 | 23.33° C | 57% | 1022.5 hPa | 0 mm | - | 619 W/m² | - |
| 1787668802 | 22.22° C | 64% | 1022.4 hPa | 0 mm | - | 563 W/m² | - |
| 1787668201 | 22.22° C | 65% | 1022.5 hPa | 0 mm | - | 577 W/m² | - |
| 1787667602 | 22.22° C | 68% | 1022.1 hPa | 0 mm | - | 544 W/m² | - |
| 1787667305 | 21.67° C | 68% | 1022 hPa | 0 mm | - | 487 W/m² | - |
| 1787666702 | 21.11° C | 72% | 1022.2 hPa | 0 mm | - | 423 W/m² | - |
| 1787666102 | 21.11° C | 73% | 1022.3 hPa | 0 mm | - | 384 W/m² | - |
| 1787665502 | 20° C | 72% | 1022.3 hPa | 0 mm | - | 357 W/m² | - |
| 1787664602 | 20° C | 75% | 1022 hPa | 0 mm | - | 272 W/m² | - |
| 1787664302 | 20° C | 76% | 1022.1 hPa | 0 mm | - | 252 W/m² | - |
| 1787664001 | 20° C | 77% | 1022 hPa | 0 mm | - | 273 W/m² | - |
| 1787662802 | 18.89° C | 79% | 1022.3 hPa | 0 mm | - | 186 W/m² | - |
| 1787662502 | 18.33° C | 79% | 1022.3 hPa | 0 mm | - | 109 W/m² | - |
| 1787662202 | 17.78° C | 80% | 1022.1 hPa | 0 mm | - | 140 W/m² | - |
| 1787661002 | 16.67° C | 87% | 1021.7 hPa | 0 mm | - | 41 W/m² | - |
| 1787660702 | 16.11° C | 87% | 1021.7 hPa | 0 mm | - | 38 W/m² | - |
| 1787660402 | 16.11° C | 88% | 1021.5 hPa | 0 mm | - | 35 W/m² | - |
| 1787660102 | 15.56° C | 89% | 1021.4 hPa | 0 mm | - | 33 W/m² | - |
| 1787659801 | 15.56° C | 90% | 1021.7 hPa | 0 mm | - | 30 W/m² | - |
| 1787659502 | 15° C | 91% | 1021.7 hPa | 0 mm | - | 29 W/m² | - |
| 1787658902 | 14.44° C | 94% | 1021.5 hPa | 0 mm | - | 23 W/m² | - |
| 1787658002 | 13.33° C | 97% | 1021.6 hPa | 0 mm | - | 15 W/m² | - |
| 1787657702 | 13.33° C | 97% | 1021.8 hPa | 0 mm | - | 13 W/m² | - |
* Rain latest hour (hover to see other rain measurements)
** Current wind speed in m/s (hover to see current wind gust speed)